Time;durP1;ratioP1;P1;durP2;ratioP2;P2;SDS_P1;SDS_P2;PMS_P1;PMS_P2;Temp;Humidity;BMP_temperature;BMP_pressure;BME280_temperature;BME280_humidity;BME280_pressure;Samples;Min_cycle;Max_cycle;Signal;HPM_P1;HPM_P2
2021/12/24 00:00:34;;;;;;;15.53;13.93;;;8.80;99.90;;;;;;5031735;28;20290;-65
2021/12/24 00:02:59;;;;;;;17.70;14.23;;;8.80;99.90;;;;;;5031094;28;20256;-66
2021/12/24 00:05:26;;;;;;;13.60;12.43;;;8.70;99.90;;;;;;5031500;28;20601;-66
2021/12/24 00:07:52;;;;;;;17.77;12.77;;;8.70;99.90;;;;;;5031237;28;20175;-66
2021/12/24 00:10:18;;;;;;;16.47;12.53;;;8.70;99.90;;;;;;5031400;28;20263;-66
2021/12/24 00:12:48;;;;;;;17.93;14.90;;;8.70;99.90;;;;;;5030841;28;20282;-65
2021/12/24 00:17:49;;;;;;;16.30;13.90;;;8.70;99.90;;;;;;5031512;28;20538;-66
2021/12/24 00:23:14;;;;;;;15.93;12.63;;;8.70;99.90;;;;;;5031214;28;20421;-66
2021/12/24 00:36:25;;;;;;;17.27;15.43;;;8.50;99.90;;;;;;5015483;28;20191;-64
2021/12/24 00:38:52;;;;;;;16.60;13.80;;;8.50;99.90;;;;;;5015624;28;20172;-65
2021/12/24 00:41:17;;;;;;;16.03;13.17;;;8.50;99.90;;;;;;5035070;28;20629;-66
2021/12/24 00:43:43;;;;;;;16.60;14.07;;;8.50;99.90;;;;;;5034876;28;20211;-66
2021/12/24 00:46:08;;;;;;;17.03;14.33;;;8.50;99.90;;;;;;5035090;28;20189;-66
2021/12/24 00:48:34;;;;;;;18.13;13.93;;;8.60;99.90;;;;;;5034882;28;20201;-65
2021/12/24 00:56:18;;;;;;;21.40;14.93;;;8.60;99.90;;;;;;5015403;28;20215;-66
2021/12/24 00:58:44;;;;;;;17.23;14.57;;;8.70;99.90;;;;;;5034567;28;20266;-66
2021/12/24 01:01:12;;;;;;;14.80;13.30;;;8.70;99.90;;;;;;5034628;28;20608;-65
2021/12/24 01:03:38;;;;;;;14.87;13.33;;;8.70;99.90;;;;;;5034430;28;20215;-67
2021/12/24 01:06:04;;;;;;;19.80;13.90;;;8.70;99.90;;;;;;5034653;28;20692;-67
2021/12/24 01:08:30;;;;;;;15.50;13.10;;;8.70;99.90;;;;;;5034477;28;20210;-66
2021/12/24 01:11:02;;;;;;;14.23;12.93;;;8.70;99.90;;;;;;5034328;28;20226;-66
2021/12/24 01:13:29;;;;;;;15.80;13.43;;;8.70;99.90;;;;;;5033868;28;20246;-66
2021/12/24 01:16:03;;;;;;;14.37;12.87;;;8.70;99.90;;;;;;5034812;28;20163;-65
2021/12/24 01:21:29;;;;;;;13.57;12.13;;;8.70;99.90;;;;;;5034507;28;20234;-66
2021/12/24 01:26:20;;;;;;;13.73;12.37;;;8.70;99.90;;;;;;5034250;28;20600;-66
2021/12/24 01:39:52;;;;;;;17.60;14.37;;;8.90;99.90;;;;;;5033942;28;20259;-64
2021/12/24 01:45:27;;;;;;;15.83;12.90;;;8.90;99.90;;;;;;5032857;28;20778;-66
2021/12/24 01:47:56;;;;;;;13.80;12.53;;;8.90;99.90;;;;;;5033478;28;20234;-66
2021/12/24 01:50:23;;;;;;;15.97;13.13;;;8.90;99.90;;;;;;5033702;28;20202;-67
2021/12/24 01:52:50;;;;;;;15.83;13.50;;;8.90;99.90;;;;;;5033230;28;20751;-65
2021/12/24 01:55:17;;;;;;;16.23;12.53;;;9.00;99.90;;;;;;5033302;28;20195;-65
2021/12/24 01:57:43;;;;;;;17.70;14.63;;;9.00;99.90;;;;;;5033395;28;20180;-66
2021/12/24 02:00:12;;;;;;;14.13;12.63;;;9.10;99.90;;;;;;5017152;28;20642;-65
2021/12/24 02:02:38;;;;;;;15.13;13.03;;;9.10;99.90;;;;;;5015267;28;20314;-66
2021/12/24 02:05:04;;;;;;;14.53;12.93;;;9.10;99.90;;;;;;5033498;28;20627;-66
2021/12/24 02:07:29;;;;;;;15.47;13.73;;;9.10;99.90;;;;;;5033275;28;20191;-66
2021/12/24 02:09:55;;;;;;;15.27;13.53;;;9.20;99.90;;;;;;5033192;28;20183;-66
2021/12/24 02:12:26;;;;;;;17.33;13.03;;;9.30;99.90;;;;;;5032804;28;20211;-66
2021/12/24 02:14:56;;;;;;;16.03;14.10;;;9.30;99.90;;;;;;5033150;28;20207;-66
2021/12/24 02:28:35;;;;;;;14.00;12.70;;;9.40;99.90;;;;;;5032749;28;20257;-66
2021/12/24 02:31:01;;;;;;;11.73;10.53;;;9.40;99.90;;;;;;5032197;28;20810;-67
2021/12/24 02:33:27;;;;;;;14.07;12.63;;;9.40;99.90;;;;;;5032310;28;20645;-67
2021/12/24 02:35:53;;;;;;;14.70;12.83;;;9.40;99.90;;;;;;5032655;28;20178;-68
2021/12/24 02:38:19;;;;;;;13.13;11.90;;;9.40;99.90;;;;;;5032677;28;20262;-67
2021/12/24 02:40:45;;;;;;;14.43;12.40;;;9.40;99.90;;;;;;5032557;28;20183;-67
2021/12/24 02:43:15;;;;;;;14.53;13.03;;;9.50;99.90;;;;;;5032084;28;20399;-66
2021/12/24 02:45:43;;;;;;;14.07;12.67;;;9.50;99.90;;;;;;5032348;28;20207;-67
2021/12/24 02:48:34;;;;;;;15.70;12.53;;;9.40;99.90;;;;;;5031784;28;20199;-67
2021/12/24 02:54:01;;;;;;;13.73;12.43;;;9.50;99.90;;;;;;5032400;28;20615;-66
2021/12/24 02:56:31;;;;;;;13.70;11.53;;;9.50;99.90;;;;;;5031741;28;20193;-66
2021/12/24 02:58:59;;;;;;;16.83;13.00;;;9.50;99.90;;;;;;5032598;28;20313;-67
2021/12/24 03:01:29;;;;;;;14.63;13.27;;;9.40;99.90;;;;;;5031973;28;20171;-67
2021/12/24 03:03:56;;;;;;;12.87;11.67;;;9.40;99.90;;;;;;5032355;28;20664;-66
2021/12/24 03:06:25;;;;;;;13.70;12.30;;;9.40;99.90;;;;;;5032118;28;20595;-67
2021/12/24 03:08:51;;;;;;;11.87;10.87;;;9.50;99.90;;;;;;5032194;28;20182;-68
2021/12/24 03:11:17;;;;;;;14.27;12.53;;;9.50;99.90;;;;;;5031524;28;20207;-65
2021/12/24 03:13:43;;;;;;;13.03;11.83;;;9.50;99.90;;;;;;5031756;28;20286;-66
2021/12/24 03:16:09;;;;;;;13.40;12.00;;;9.50;99.90;;;;;;5032137;28;20596;-66
2021/12/24 03:18:38;;;;;;;13.67;11.33;;;9.50;99.90;;;;;;5032043;28;20190;-65
2021/12/24 03:23:37;;;;;;;14.07;11.97;;;9.50;99.90;;;;;;5031469;28;20240;-64
2021/12/24 03:26:04;;;;;;;13.13;11.80;;;9.50;99.90;;;;;;5031994;28;20176;-66
2021/12/24 03:28:30;;;;;;;15.40;14.03;;;9.50;99.90;;;;;;5031736;28;20175;-65
2021/12/24 03:30:56;;;;;;;13.33;11.97;;;9.50;99.90;;;;;;5031549;28;20664;-65
2021/12/24 03:33:21;;;;;;;13.50;12.10;;;9.40;99.90;;;;;;5031405;28;20198;-65
2021/12/24 03:35:47;;;;;;;15.53;13.57;;;9.40;99.90;;;;;;5031973;28;20176;-65
2021/12/24 03:38:13;;;;;;;12.17;11.17;;;9.40;99.90;;;;;;5031736;28;20177;-65
2021/12/24 03:40:38;;;;;;;19.77;13.57;;;9.30;99.90;;;;;;5031644;28;20172;-65
2021/12/24 03:43:04;;;;;;;16.00;13.70;;;9.30;99.90;;;;;;5031483;28;20175;-65
2021/12/24 03:46:07;;;;;;;14.30;12.80;;;9.30;99.90;;;;;;5031468;28;20215;-66
2021/12/24 03:48:27;;;;;;;13.47;12.17;;;9.30;99.90;;;;;;5028536;28;20183;-65
2021/12/24 03:51:03;;;;;;;14.00;12.60;;;9.30;99.90;;;;;;5031481;28;20195;-66
2021/12/24 03:56:15;;;;;;;13.70;12.30;;;9.30;99.90;;;;;;5031410;28;20237;-65
2021/12/24 03:58:41;;;;;;;15.63;12.17;;;9.30;99.90;;;;;;5031624;28;20258;-65
2021/12/24 04:01:07;;;;;;;14.43;12.97;;;9.30;99.90;;;;;;5031744;28;20194;-64
2021/12/24 04:03:33;;;;;;;16.03;14.43;;;9.30;99.90;;;;;;5030947;28;20651;-65
2021/12/24 04:05:58;;;;;;;14.77;13.23;;;9.30;99.90;;;;;;5031494;28;20184;-65
2021/12/24 04:08:24;;;;;;;15.50;13.57;;;9.40;99.90;;;;;;5030697;28;20184;-64
2021/12/24 04:10:50;;;;;;;18.60;13.70;;;9.40;99.90;;;;;;5031473;28;20199;-66
2021/12/24 04:13:15;;;;;;;13.63;12.33;;;9.40;99.90;;;;;;5030796;28;20171;-65
2021/12/24 04:15:42;;;;;;;13.07;11.73;;;9.40;99.90;;;;;;5031672;28;20273;-64
2021/12/24 04:18:16;;;;;;;14.30;12.47;;;9.40;99.90;;;;;;5029761;28;20767;-65
2021/12/24 04:26:11;;;;;;;14.23;11.97;;;9.40;99.90;;;;;;5031554;28;20222;-66
2021/12/24 04:28:37;;;;;;;14.40;12.10;;;9.40;99.90;;;;;;5031098;28;20203;-65
2021/12/24 04:31:03;;;;;;;13.73;12.43;;;9.40;99.90;;;;;;5031103;28;20274;-66
2021/12/24 04:33:34;;;;;;;16.33;13.03;;;9.40;99.90;;;;;;5030491;28;20176;-65
2021/12/24 05:03:02;;;;;;;12.70;11.50;;;9.50;99.90;;;;;;5031596;28;20551;-65
2021/12/24 05:05:47;;;;;;;13.43;11.83;;;9.50;99.90;;;;;;5030920;28;20207;-65
2021/12/24 05:10:40;;;;;;;12.63;11.20;;;9.50;99.90;;;;;;5030904;28;20668;-65
2021/12/24 05:13:08;;;;;;;19.77;12.67;;;9.50;99.90;;;;;;5030541;28;20254;-66
2021/12/24 05:15:37;;;;;;;12.97;11.57;;;9.50;99.90;;;;;;5030493;28;20200;-66
2021/12/24 05:23:24;;;;;;;14.87;13.27;;;9.50;99.90;;;;;;5033513;28;20182;-66
2021/12/24 05:25:52;;;;;;;17.67;13.40;;;9.50;99.90;;;;;;5034074;28;20565;-65
2021/12/24 05:28:18;;;;;;;13.80;12.00;;;9.50;99.90;;;;;;5034204;28;20444;-65
2021/12/24 05:30:44;;;;;;;13.83;11.87;;;9.40;99.90;;;;;;5034236;28;20645;-66
2021/12/24 05:33:13;;;;;;;16.13;12.70;;;9.50;99.90;;;;;;5032462;28;20221;-66
2021/12/24 05:35:39;;;;;;;14.13;12.63;;;9.50;99.90;;;;;;5033747;28;20214;-66
2021/12/24 05:38:05;;;;;;;14.83;13.30;;;9.50;99.90;;;;;;5034403;28;20199;-65
2021/12/24 05:40:31;;;;;;;14.57;13.27;;;9.50;99.90;;;;;;5033860;28;20171;-66
2021/12/24 05:42:57;;;;;;;13.73;12.30;;;9.50;99.90;;;;;;5033736;28;20183;-65
2021/12/24 05:45:24;;;;;;;14.43;12.93;;;9.50;99.90;;;;;;5033361;28;20215;-67
2021/12/24 05:47:50;;;;;;;13.77;12.33;;;9.50;99.90;;;;;;5033930;28;20164;-66
2021/12/24 05:50:16;;;;;;;14.40;12.90;;;9.50;99.90;;;;;;5033466;28;20191;-65
2021/12/24 05:52:42;;;;;;;15.47;12.47;;;9.50;99.90;;;;;;5033512;28;20195;-66
2021/12/24 05:55:08;;;;;;;13.57;12.27;;;9.50;99.90;;;;;;5033385;28;20206;-66
2021/12/24 05:57:34;;;;;;;13.60;12.40;;;9.50;99.90;;;;;;5033905;28;20164;-65
2021/12/24 06:00:05;;;;;;;13.07;11.63;;;9.50;99.90;;;;;;5033436;28;20187;-65
2021/12/24 06:02:33;;;;;;;13.50;11.80;;;9.50;99.90;;;;;;5033172;28;20199;-65
2021/12/24 06:04:59;;;;;;;14.40;12.90;;;9.50;99.90;;;;;;5033663;28;20610;-66
2021/12/24 06:07:25;;;;;;;14.13;12.00;;;9.50;99.90;;;;;;5033197;28;20202;-67
2021/12/24 06:09:50;;;;;;;13.63;12.07;;;9.50;99.90;;;;;;5028118;28;20259;-66
2021/12/24 06:12:16;;;;;;;14.73;12.63;;;9.40;99.90;;;;;;5013251;28;20258;-65
2021/12/24 06:14:45;;;;;;;13.80;11.50;;;9.50;99.90;;;;;;5013534;28;20737;-66
2021/12/24 06:17:15;;;;;;;15.77;11.67;;;9.40;99.90;;;;;;5032797;28;20641;-65
2021/12/24 06:19:41;;;;;;;16.33;13.90;;;9.50;99.90;;;;;;5033244;28;20206;-66
2021/12/24 06:22:07;;;;;;;12.93;11.70;;;9.50;99.90;;;;;;5031569;28;20553;-65
2021/12/24 06:24:33;;;;;;;13.80;11.23;;;9.50;99.90;;;;;;5033294;28;20199;-66
2021/12/24 06:26:59;;;;;;;15.97;11.83;;;9.50;99.90;;;;;;5032978;28;20207;-65
2021/12/24 06:29:25;;;;;;;12.23;11.03;;;9.40;99.90;;;;;;5033046;28;20199;-65
2021/12/24 06:31:51;;;;;;;13.70;11.67;;;9.40;99.90;;;;;;5032537;28;20199;-66
2021/12/24 06:34:17;;;;;;;14.03;12.23;;;9.40;99.90;;;;;;5032671;28;20673;-65
2021/12/24 06:36:46;;;;;;;12.70;11.23;;;9.40;99.90;;;;;;5031441;28;20179;-65
2021/12/24 06:39:12;;;;;;;17.40;12.33;;;9.30;99.90;;;;;;5032882;28;20171;-65
2021/12/24 06:41:38;;;;;;;15.33;11.43;;;9.30;99.90;;;;;;5032523;28;20191;-65
2021/12/24 06:44:05;;;;;;;14.03;11.50;;;9.40;99.90;;;;;;5060373;22;20226;-67
2021/12/24 06:46:31;;;;;;;16.07;10.60;;;9.40;99.90;;;;;;5072461;28;20235;-65
2021/12/24 06:48:57;;;;;;;18.53;11.40;;;9.30;99.90;;;;;;5072661;28;20249;-66
2021/12/24 06:51:23;;;;;;;12.90;11.60;;;9.30;99.90;;;;;;5058869;28;20671;-66
2021/12/24 06:53:49;;;;;;;16.63;12.57;;;9.30;99.90;;;;;;5072240;28;20166;-65
2021/12/24 06:56:16;;;;;;;13.43;12.13;;;9.30;99.90;;;;;;5065642;28;20237;-66
2021/12/24 06:58:41;;;;;;;13.20;11.80;;;9.30;99.90;;;;;;5051088;28;20167;-66
2021/12/24 07:01:07;;;;;;;15.60;11.70;;;9.30;99.90;;;;;;5056250;28;20269;-66
2021/12/24 07:03:33;;;;;;;18.23;11.27;;;9.30;99.90;;;;;;5071598;28;20182;-66
2021/12/24 07:05:59;;;;;;;12.97;11.53;;;9.30;99.90;;;;;;5068962;28;20662;-66
2021/12/24 07:08:25;;;;;;;12.17;10.97;;;9.30;99.90;;;;;;5052034;28;20182;-66
2021/12/24 07:10:52;;;;;;;12.87;11.60;;;9.40;99.90;;;;;;5052699;28;20549;-66
2021/12/24 07:13:17;;;;;;;16.23;11.73;;;9.40;99.90;;;;;;5071328;28;20237;-66
2021/12/24 07:15:43;;;;;;;17.00;12.93;;;9.30;99.90;;;;;;5071856;28;20198;-67
2021/12/24 07:18:09;;;;;;;16.47;12.60;;;9.30;99.90;;;;;;5052464;28;20715;-67
2021/12/24 07:20:34;;;;;;;14.40;11.90;;;9.30;99.90;;;;;;5052119;28;20552;-66
2021/12/24 07:23:00;;;;;;;13.77;12.27;;;9.30;99.90;;;;;;5068815;28;20185;-66
2021/12/24 07:25:26;;;;;;;15.03;11.80;;;9.30;99.90;;;;;;5058091;28;20261;-66
2021/12/24 07:27:52;;;;;;;13.17;11.40;;;9.20;99.90;;;;;;5054518;28;20204;-66
2021/12/24 07:30:18;;;;;;;15.23;12.10;;;9.20;99.90;;;;;;5031698;28;20176;-66
2021/12/24 07:32:45;;;;;;;19.23;12.70;;;9.20;99.90;;;;;;5031655;28;20191;-66
2021/12/24 07:35:11;;;;;;;13.67;12.17;;;9.10;99.90;;;;;;5050833;28;20666;-66
2021/12/24 07:37:38;;;;;;;18.97;12.43;;;9.10;99.90;;;;;;5062757;28;20579;-66
2021/12/24 07:40:04;;;;;;;20.10;12.97;;;9.10;99.90;;;;;;5051587;28;20163;-66
2021/12/24 07:42:30;;;;;;;16.10;13.20;;;9.10;99.90;;;;;;5057246;28;20531;-66
2021/12/24 07:44:56;;;;;;;15.20;13.10;;;9.00;99.90;;;;;;5071608;28;20553;-66
2021/12/24 07:47:32;;;;;;;17.20;13.30;;;9.00;99.90;;;;;;5069762;28;20257;-66
2021/12/24 07:50:15;;;;;;;14.53;13.17;;;9.00;99.90;;;;;;5071901;28;20174;-66
2021/12/24 07:52:43;;;;;;;16.10;13.33;;;8.90;99.90;;;;;;5029978;28;20214;-67
2021/12/24 07:55:10;;;;;;;15.67;12.53;;;8.90;99.90;;;;;;5031399;28;20251;-66
2021/12/24 07:57:39;;;;;;;15.90;13.90;;;8.80;99.90;;;;;;5069322;28;20170;-67
2021/12/24 08:00:07;;;;;;;21.63;14.47;;;8.80;99.90;;;;;;5071358;28;20177;-66
2021/12/24 08:02:33;;;;;;;24.07;14.20;;;8.80;99.90;;;;;;5051656;28;20187;-67
2021/12/24 08:04:59;;;;;;;17.50;14.10;;;8.80;99.90;;;;;;5050073;28;20568;-66
2021/12/24 08:07:24;;;;;;;20.87;13.40;;;8.80;99.90;;;;;;5068771;28;20240;-66
2021/12/24 08:09:52;;;;;;;19.17;14.80;;;8.80;99.90;;;;;;5071276;28;20178;-64
2021/12/24 08:12:18;;;;;;;17.47;12.60;;;8.80;99.90;;;;;;5069127;28;20233;-66
2021/12/24 08:14:44;;;;;;;19.93;14.60;;;8.90;99.90;;;;;;5071186;28;20186;-65
2021/12/24 08:17:11;;;;;;;17.07;13.70;;;8.90;99.90;;;;;;5056441;28;20167;-65
2021/12/24 08:19:37;;;;;;;15.60;13.70;;;8.90;99.90;;;;;;5051081;28;20170;-66
2021/12/24 08:22:03;;;;;;;15.57;12.93;;;8.90;99.90;;;;;;5062247;28;20192;-66
2021/12/24 08:24:30;;;;;;;15.37;13.83;;;9.00;99.90;;;;;;5070986;28;20212;-66
2021/12/24 08:26:56;;;;;;;14.30;11.60;;;9.00;99.90;;;;;;5060015;28;20266;-66
2021/12/24 08:29:22;;;;;;;18.83;13.40;;;9.00;99.90;;;;;;5049895;28;20640;-66
2021/12/24 08:31:49;;;;;;;15.33;12.10;;;9.10;99.90;;;;;;5059203;28;20206;-66
2021/12/24 08:34:17;;;;;;;20.63;13.43;;;9.10;99.90;;;;;;5070550;28;20186;-66
2021/12/24 08:36:43;;;;;;;13.23;11.53;;;9.10;99.90;;;;;;5068105;28;20171;-66
2021/12/24 08:39:08;;;;;;;13.37;11.27;;;9.10;99.90;;;;;;5050931;28;20230;-66
2021/12/24 08:41:34;;;;;;;14.03;12.53;;;9.10;99.90;;;;;;5050958;28;20170;-66
2021/12/24 08:44:00;;;;;;;20.13;13.47;;;9.20;99.90;;;;;;5049362;28;20206;-66
2021/12/24 08:46:25;;;;;;;15.13;11.27;;;9.20;99.90;;;;;;5049603;28;20650;-68
2021/12/24 08:48:51;;;;;;;18.50;11.57;;;9.20;99.90;;;;;;5051151;28;20176;-65
2021/12/24 08:51:17;;;;;;;17.37;12.23;;;9.30;99.90;;;;;;5048869;28;20191;-66
2021/12/24 08:53:42;;;;;;;14.40;11.60;;;9.30;99.90;;;;;;5051874;28;20636;-65
2021/12/24 08:56:08;;;;;;;17.37;12.10;;;9.30;99.90;;;;;;5054269;28;20254;-66
2021/12/24 08:58:34;;;;;;;20.03;13.23;;;9.40;99.90;;;;;;5054534;28;20264;-66
2021/12/24 09:01:00;;;;;;;17.77;12.03;;;9.40;99.90;;;;;;5054581;28;20536;-66
2021/12/24 09:03:25;;;;;;;17.50;11.50;;;9.50;99.90;;;;;;5052597;28;20602;-66
2021/12/24 09:05:51;;;;;;;14.73;10.87;;;9.60;99.90;;;;;;5054391;28;20277;-67
2021/12/24 09:08:17;;;;;;;12.37;10.90;;;9.60;99.90;;;;;;5053949;28;20644;-66
2021/12/24 09:10:43;;;;;;;14.97;11.33;;;9.60;99.90;;;;;;5054857;28;20261;-66
2021/12/24 09:13:08;;;;;;;17.03;12.90;;;9.70;99.90;;;;;;5053682;28;20466;-66
2021/12/24 09:15:34;;;;;;;14.87;10.60;;;9.70;99.90;;;;;;5055493;28;20213;-66
2021/12/24 09:18:02;;;;;;;13.70;10.57;;;9.70;99.90;;;;;;5052909;28;20174;-66
2021/12/24 09:20:35;;;;;;;13.20;11.90;;;9.80;99.90;;;;;;5055281;28;20202;-66
2021/12/24 09:23:02;;;;;;;12.50;9.93;;;9.80;99.90;;;;;;5073282;28;20654;-65
2021/12/24 09:25:29;;;;;;;15.70;11.33;;;9.80;99.90;;;;;;5073111;28;20190;-66
2021/12/24 09:27:56;;;;;;;14.80;13.03;;;9.70;99.90;;;;;;5054002;28;20261;-66
2021/12/24 09:30:22;;;;;;;14.07;12.67;;;9.80;99.90;;;;;;5053918;28;20236;-65
2021/12/24 09:32:48;;;;;;;12.03;10.87;;;9.80;99.90;;;;;;5054720;28;20297;-65
2021/12/24 09:35:14;;;;;;;11.67;10.07;;;9.80;99.90;;;;;;5053682;28;20274;-66
2021/12/24 09:37:41;;;;;;;19.03;10.60;;;9.80;99.90;;;;;;5071077;28;20694;-66
2021/12/24 09:40:10;;;;;;;11.57;10.23;;;9.80;99.90;;;;;;5073449;28;20252;-66
2021/12/24 09:42:35;;;;;;;13.93;10.47;;;9.80;99.90;;;;;;5056950;28;20632;-66
2021/12/24 09:45:04;;;;;;;13.57;10.37;;;9.90;99.90;;;;;;5057210;28;20212;-66
2021/12/24 09:47:29;;;;;;;13.60;9.93;;;9.80;99.90;;;;;;5033794;28;20180;-67
2021/12/24 09:49:55;;;;;;;13.30;9.70;;;9.80;99.90;;;;;;5051231;28;20186;-66
2021/12/24 09:52:22;;;;;;;12.43;10.93;;;9.80;99.90;;;;;;5051982;28;20379;-66
2021/12/24 09:54:49;;;;;;;13.03;10.27;;;9.70;99.90;;;;;;5068351;28;20545;-66
2021/12/24 09:57:15;;;;;;;13.83;9.73;;;9.70;99.90;;;;;;5073372;28;20264;-66
2021/12/24 09:59:41;;;;;;;11.93;10.73;;;9.70;99.90;;;;;;5059891;28;20182;-66
2021/12/24 10:02:13;;;;;;;12.33;10.33;;;9.80;99.90;;;;;;5052920;28;20183;-66
2021/12/24 10:04:40;;;;;;;14.97;11.00;;;9.80;99.90;;;;;;5064734;28;20201;-66
2021/12/24 10:07:08;;;;;;;15.83;10.40;;;9.80;99.90;;;;;;5073291;28;20174;-66
2021/12/24 10:09:40;;;;;;;16.60;13.90;;;9.80;99.90;;;;;;5065692;28;20190;-66
2021/12/24 10:12:08;;;;;;;24.30;16.17;;;9.80;99.90;;;;;;5035960;28;20288;-66
2021/12/24 10:14:39;;;;;;;20.80;15.10;;;9.90;99.90;;;;;;5033186;28;20282;-66
2021/12/24 10:17:12;;;;;;;21.83;14.97;;;10.00;99.90;;;;;;5050347;28;20175;-66
2021/12/24 10:19:45;;;;;;;16.33;12.70;;;10.00;99.90;;;;;;5053047;28;20167;-66
2021/12/24 10:22:11;;;;;;;12.30;11.07;;;10.00;99.90;;;;;;5052852;28;20175;-66
2021/12/24 10:24:37;;;;;;;14.13;11.43;;;10.10;99.90;;;;;;5053964;28;20282;-67
2021/12/24 10:27:03;;;;;;;11.07;10.17;;;10.10;99.90;;;;;;5053116;28;20258;-66
2021/12/24 10:29:39;;;;;;;11.47;10.47;;;10.20;99.90;;;;;;5052164;28;20252;-65
2021/12/24 10:32:18;;;;;;;13.20;10.30;;;10.10;99.90;;;;;;5052782;28;20272;-66
2021/12/24 10:34:45;;;;;;;16.13;10.60;;;10.20;99.90;;;;;;5052960;28;20565;-66
2021/12/24 10:37:22;;;;;;;11.77;10.60;;;10.20;99.90;;;;;;5052899;28;20179;-65
2021/12/24 10:39:57;;;;;;;11.30;10.17;;;10.20;99.90;;;;;;5051520;28;20202;-65
2021/12/24 10:42:36;;;;;;;11.63;10.53;;;10.20;99.90;;;;;;5052557;28;20166;-66
2021/12/24 10:45:06;;;;;;;13.33;10.70;;;10.20;99.90;;;;;;5052665;28;20720;-66
2021/12/24 10:47:36;;;;;;;14.90;10.10;;;10.20;99.90;;;;;;5053115;28;20177;-66
2021/12/24 10:50:32;;;;;;;11.43;10.27;;;10.20;99.90;;;;;;5050643;28;20179;-67
2021/12/24 10:53:21;;;;;;;13.43;10.03;;;10.30;99.90;;;;;;5052574;28;20225;-65
2021/12/24 10:55:52;;;;;;;11.43;9.83;;;10.30;99.90;;;;;;5052698;28;20183;-67
2021/12/24 10:58:22;;;;;;;9.37;8.57;;;10.30;99.90;;;;;;5052619;28;20652;-66
2021/12/24 11:00:59;;;;;;;15.53;10.60;;;10.30;99.90;;;;;;5052555;28;20170;-66
2021/12/24 11:03:32;;;;;;;9.47;8.57;;;10.30;99.90;;;;;;5052283;28;20170;-66
2021/12/24 11:06:09;;;;;;;10.97;8.60;;;10.30;99.90;;;;;;5052343;28;20186;-67
2021/12/24 11:08:37;;;;;;;10.53;9.53;;;10.30;99.90;;;;;;5052542;28;20669;-66
2021/12/24 11:11:05;;;;;;;10.30;9.33;;;10.40;99.90;;;;;;5051096;28;20729;-65
2021/12/24 11:13:38;;;;;;;10.97;9.90;;;10.30;99.90;;;;;;5052069;28;20175;-66
2021/12/24 11:16:05;;;;;;;11.17;9.87;;;10.30;99.90;;;;;;5052174;28;20282;-67
2021/12/24 11:18:34;;;;;;;10.73;9.63;;;10.30;99.90;;;;;;5051171;28;20207;-67
2021/12/24 11:21:17;;;;;;;12.07;10.10;;;10.20;99.90;;;;;;5052352;28;20209;-68
2021/12/24 11:23:43;;;;;;;11.57;9.97;;;10.20;99.90;;;;;;5051736;28;20606;-66
2021/12/24 11:26:14;;;;;;;11.10;9.40;;;10.20;99.90;;;;;;5052399;28;20194;-66
2021/12/24 11:28:41;;;;;;;13.27;9.30;;;10.20;99.90;;;;;;5052023;28;20537;-66
2021/12/24 11:31:22;;;;;;;15.97;9.43;;;10.20;99.90;;;;;;5050649;28;20175;-66
2021/12/24 11:33:51;;;;;;;11.27;10.23;;;10.20;99.90;;;;;;5051582;28;20173;-66
2021/12/24 11:36:20;;;;;;;11.27;10.07;;;10.20;99.90;;;;;;5051938;28;20167;-66
2021/12/24 11:38:54;;;;;;;11.40;9.47;;;10.30;99.90;;;;;;5052025;28;20267;-66
2021/12/24 11:41:24;;;;;;;11.10;10.20;;;10.40;99.90;;;;;;5050722;28;20175;-66
2021/12/24 11:43:51;;;;;;;11.87;10.50;;;10.50;99.90;;;;;;5051294;28;20181;-66
2021/12/24 11:46:20;;;;;;;13.57;9.97;;;10.60;99.90;;;;;;5055935;28;20256;-66
2021/12/24 11:48:49;;;;;;;10.13;9.23;;;10.80;99.90;;;;;;5060135;28;20260;-66
2021/12/24 11:51:23;;;;;;;13.40;10.20;;;10.80;99.90;;;;;;5062160;28;20202;-65
2021/12/24 11:53:51;;;;;;;12.07;9.97;;;10.80;99.90;;;;;;5051146;28;20174;-66
2021/12/24 11:56:20;;;;;;;45.40;23.30;;;10.80;99.90;;;;;;5050583;28;20248;-66
2021/12/24 11:58:51;;;;;;;17.60;13.23;;;10.90;99.90;;;;;;5050367;28;20177;-66
2021/12/24 12:01:30;;;;;;;9.97;9.10;;;11.10;99.90;;;;;;5051673;28;20182;-66
2021/12/24 12:03:57;;;;;;;11.87;9.43;;;11.30;99.90;;;;;;5050391;28;20210;-66
2021/12/24 12:06:23;;;;;;;10.23;9.30;;;11.20;99.90;;;;;;5050171;28;20260;-66
2021/12/24 12:08:54;;;;;;;17.47;10.70;;;11.10;99.90;;;;;;5066018;28;20639;-66
2021/12/24 12:11:25;;;;;;;12.27;10.00;;;11.00;99.90;;;;;;5071448;28;20224;-65
2021/12/24 12:14:11;;;;;;;9.00;8.20;;;10.80;99.90;;;;;;5053831;28;20586;-67
2021/12/24 12:16:39;;;;;;;12.73;9.70;;;10.80;99.90;;;;;;5051668;28;20187;-67
2021/12/24 12:19:21;;;;;;;10.10;9.10;;;10.80;99.90;;;;;;5069835;28;20178;-67
2021/12/24 12:22:12;;;;;;;12.50;9.27;;;10.70;99.90;;;;;;5071505;28;20180;-67
2021/12/24 12:27:37;;;;;;;11.63;9.20;;;10.70;99.90;;;;;;5034545;28;20198;-66
2021/12/24 12:30:40;;;;;;;9.77;8.77;;;10.60;99.90;;;;;;5075338;28;20180;-66
2021/12/24 12:33:05;;;;;;;11.80;9.13;;;10.60;99.90;;;;;;5066184;28;20244;-66
2021/12/24 12:35:57;;;;;;;13.90;8.67;;;10.60;99.90;;;;;;5056027;28;20652;-66
2021/12/24 12:38:29;;;;;;;15.33;9.03;;;10.70;99.90;;;;;;5053418;28;20198;-66
2021/12/24 12:41:23;;;;;;;10.40;9.13;;;10.70;99.90;;;;;;5055410;28;20182;-66
2021/12/24 12:43:50;;;;;;;10.07;8.90;;;10.70;99.90;;;;;;5049597;28;20569;-66
2021/12/24 12:46:24;;;;;;;9.93;7.97;;;10.70;99.90;;;;;;5036480;22;20228;-63
2021/12/24 12:48:53;;;;;;;8.47;7.60;;;10.70;99.90;;;;;;5015028;28;20173;-63
2021/12/24 12:51:21;;;;;;;10.17;7.90;;;10.70;99.90;;;;;;5014869;28;20200;-65
2021/12/24 12:53:48;;;;;;;9.53;7.80;;;10.70;99.90;;;;;;5014867;28;20168;-66
2021/12/24 12:56:30;;;;;;;9.23;8.33;;;10.70;99.90;;;;;;5014710;28;20203;-66
2021/12/24 12:59:01;;;;;;;12.10;9.30;;;10.70;99.90;;;;;;5015221;28;20173;-66
2021/12/24 13:01:27;;;;;;;11.47;9.90;;;10.70;99.90;;;;;;5014623;28;20176;-66
2021/12/24 13:03:56;;;;;;;8.40;7.80;;;10.60;99.90;;;;;;5014738;28;20171;-66
2021/12/24 13:06:42;;;;;;;11.53;8.00;;;10.50;99.90;;;;;;5014342;28;20287;-67
2021/12/24 13:09:21;;;;;;;9.10;8.17;;;10.60;99.90;;;;;;5010723;28;20231;-64
2021/12/24 13:11:53;;;;;;;9.57;7.80;;;10.60;99.90;;;;;;5014635;28;20218;-63
2021/12/24 13:14:21;;;;;;;10.67;8.33;;;10.60;99.90;;;;;;5012628;28;20230;-64
2021/12/24 13:19:59;;;;;;;11.23;9.10;;;10.50;99.90;;;;;;5014979;28;20657;-63
2021/12/24 13:22:32;;;;;;;10.23;9.33;;;10.50;99.90;;;;;;5014227;28;20259;-64
2021/12/24 13:25:13;;;;;;;9.83;8.83;;;10.40;99.90;;;;;;5014370;28;20215;-63
2021/12/24 13:27:48;;;;;;;10.27;8.20;;;10.30;99.90;;;;;;5014474;28;20223;-65
2021/12/24 13:30:14;;;;;;;10.87;8.70;;;10.30;99.90;;;;;;5013691;28;20219;-66
2021/12/24 13:32:48;;;;;;;10.27;9.43;;;10.30;99.90;;;;;;5013975;28;20228;-64
2021/12/24 13:35:21;;;;;;;9.23;8.30;;;10.30;99.90;;;;;;5013946;28;20204;-63
2021/12/24 13:37:47;;;;;;;10.30;9.30;;;10.20;99.90;;;;;;5014281;28;20192;-65
2021/12/24 13:40:20;;;;;;;12.00;9.10;;;10.20;99.90;;;;;;5012565;28;20219;-66
2021/12/24 13:42:48;;;;;;;14.27;9.73;;;10.20;99.90;;;;;;5014070;28;20168;-66
2021/12/24 13:45:14;;;;;;;11.03;9.27;;;10.20;99.90;;;;;;5012922;28;20211;-66
2021/12/24 13:50:27;;;;;;;11.00;9.93;;;10.20;99.90;;;;;;5013266;28;20554;-65
2021/12/24 13:55:40;;;;;;;15.40;10.10;;;10.10;99.90;;;;;;4994054;28;20236;-66
2021/12/24 13:58:12;;;;;;;10.30;9.33;;;10.10;99.90;;;;;;4994346;28;20173;-66
2021/12/24 14:00:52;;;;;;;10.97;9.43;;;10.10;99.90;;;;;;5013926;28;20184;-65
2021/12/24 14:03:26;;;;;;;11.87;9.80;;;10.10;99.90;;;;;;5013684;28;20179;-66
2021/12/24 14:05:54;;;;;;;16.37;10.17;;;10.00;99.90;;;;;;5014035;28;20215;-65
2021/12/24 14:08:25;;;;;;;11.13;10.10;;;10.10;99.90;;;;;;5013819;28;20175;-66
2021/12/24 14:11:09;;;;;;;12.30;11.00;;;10.00;99.90;;;;;;5008995;28;20188;-66
2021/12/24 14:13:43;;;;;;;18.53;14.07;;;10.00;99.90;;;;;;4997718;28;20215;-66
2021/12/24 14:18:54;;;;;;;10.53;9.47;;;10.00;99.90;;;;;;5013983;28;20176;-67
2021/12/24 14:24:13;;;;;;;13.97;11.10;;;9.90;99.90;;;;;;5014020;28;20176;-67
2021/12/24 14:26:47;;;;;;;12.53;10.93;;;9.90;99.90;;;;;;5013289;28;20180;-66
2021/12/24 14:29:32;;;;;;;11.53;10.03;;;9.80;99.90;;;;;;5013436;28;20250;-67
2021/12/24 14:32:00;;;;;;;13.53;10.63;;;9.80;99.90;;;;;;5012975;28;20701;-64
2021/12/24 14:34:28;;;;;;;12.07;11.17;;;9.80;99.90;;;;;;5013261;28;20311;-67
2021/12/24 14:37:04;;;;;;;12.70;11.60;;;9.80;99.90;;;;;;5013205;28;20811;-67
2021/12/24 14:39:45;;;;;;;13.63;10.60;;;9.80;99.90;;;;;;5010694;28;20208;-66
2021/12/24 14:42:14;;;;;;;11.20;10.20;;;9.80;99.90;;;;;;5012773;28;20723;-66